createdAt,value
2022-12-19T00:01:26.903Z,-6.39
2022-12-19T00:03:59.998Z,-6.43
2022-12-19T00:06:31.894Z,-6.46
2022-12-19T00:09:02.904Z,-6.47
2022-12-19T00:11:34.676Z,-6.47
2022-12-19T00:14:06.842Z,-6.47
2022-12-19T00:16:40.428Z,-6.47
2022-12-19T00:19:12.837Z,-6.46
2022-12-19T00:21:43.087Z,-6.49
2022-12-19T00:24:20.932Z,-6.52
2022-12-19T00:26:52.467Z,-6.52
2022-12-19T00:29:22.532Z,-6.54
2022-12-19T00:31:58.274Z,-6.55
2022-12-19T00:34:28.555Z,-6.54
2022-12-19T00:36:58.759Z,-6.56
2022-12-19T00:39:31.836Z,-6.52
2022-12-19T00:42:04.086Z,-6.53
2022-12-19T00:44:34.260Z,-6.52
2022-12-19T00:47:07.412Z,-6.49
2022-12-19T00:49:37.562Z,-6.50
2022-12-19T00:52:08.615Z,-6.50
2022-12-19T00:54:38.979Z,-6.47
2022-12-19T00:57:09.589Z,-6.47
2022-12-19T00:59:39.871Z,-6.48
2022-12-19T01:02:12.798Z,-6.50
2022-12-19T01:04:45.289Z,-6.46
2022-12-19T01:07:16.136Z,-6.41
2022-12-19T01:09:46.290Z,-6.39
2022-12-19T01:12:30.525Z,-6.40
2022-12-19T01:15:04.215Z,-6.46
2022-12-19T01:17:44.085Z,-6.50
2022-12-19T01:20:27.352Z,-6.52
2022-12-19T01:23:00.942Z,-6.52
2022-12-19T01:25:31.645Z,-6.50
2022-12-19T01:28:03.134Z,-6.49
2022-12-19T01:30:37.142Z,-6.44
2022-12-19T01:33:13.793Z,-6.37
2022-12-19T01:35:44.907Z,-6.32
2022-12-19T01:38:17.371Z,-6.26
2022-12-19T01:40:54.377Z,-6.19
2022-12-19T01:43:25.658Z,-6.09
2022-12-19T01:45:59.521Z,-6.03
2022-12-19T01:48:36.216Z,-5.99
2022-12-19T01:51:15.596Z,-5.92
2022-12-19T01:53:52.617Z,-5.89
2022-12-19T01:56:29.647Z,-5.84
2022-12-19T01:59:07.024Z,-5.81
2022-12-19T02:01:51.260Z,-5.76
2022-12-19T02:04:32.291Z,-5.71
2022-12-19T02:07:15.574Z,-5.70
2022-12-19T02:09:51.939Z,-5.69
2022-12-19T02:12:34.731Z,-5.69
2022-12-19T02:15:06.126Z,-5.69
2022-12-19T02:17:48.796Z,-5.67
2022-12-19T02:21:05.335Z,-5.70
2022-12-19T02:24:19.950Z,-5.66
2022-12-19T02:27:03.192Z,-5.67
2022-12-19T02:29:54.967Z,-5.70
2022-12-19T02:32:39.037Z,-5.70
2022-12-19T02:35:13.041Z,-5.65
2022-12-19T02:37:50.237Z,-5.65
2022-12-19T02:40:27.091Z,-5.64
2022-12-19T02:43:02.444Z,-5.64
2022-12-19T02:45:37.962Z,-5.62
2022-12-19T02:48:19.255Z,-5.62
2022-12-19T02:50:51.544Z,-5.64
2022-12-19T02:53:26.647Z,-5.63
2022-12-19T02:56:24.157Z,-5.67
2022-12-19T02:59:14.210Z,-5.64
2022-12-19T03:01:50.532Z,-5.72
2022-12-19T03:04:34.349Z,-5.68
2022-12-19T03:07:11.366Z,-5.67
2022-12-19T03:09:49.333Z,-5.65
2022-12-19T03:12:28.623Z,-5.63
2022-12-19T03:15:01.049Z,-5.68
2022-12-19T03:17:32.477Z,-5.69
2022-12-19T03:20:08.734Z,-5.74
2022-12-19T03:22:38.824Z,-5.77
2022-12-19T03:25:10.169Z,-5.80
2022-12-19T03:27:42.301Z,-5.87
2022-12-19T03:30:18.139Z,-5.87
2022-12-19T03:32:50.981Z,-5.89
2022-12-19T03:35:26.205Z,-5.89
2022-12-19T03:38:04.985Z,-5.91
2022-12-19T03:40:37.900Z,-5.91
2022-12-19T03:43:11.618Z,-5.94
2022-12-19T03:45:51.986Z,-5.95
2022-12-19T03:48:29.559Z,-5.99
2022-12-19T03:51:11.531Z,-6.01
2022-12-19T03:53:56.920Z,-6.09
2022-12-19T03:56:35.118Z,-6.12
2022-12-19T03:59:11.054Z,-6.09
2022-12-19T04:01:43.490Z,-6.12
2022-12-19T04:04:17.222Z,-6.19
2022-12-19T04:06:52.457Z,-6.21
2022-12-19T04:09:25.363Z,-6.21
2022-12-19T04:12:04.437Z,-6.24
2022-12-19T04:14:37.756Z,-6.34
2022-12-19T04:17:15.412Z,-6.41
2022-12-19T04:19:51.276Z,-6.46
2022-12-19T04:22:28.476Z,-6.47
2022-12-19T04:25:01.700Z,-6.37
2022-12-19T04:27:34.390Z,-6.37
2022-12-19T04:30:09.128Z,-6.33
2022-12-19T04:32:40.819Z,-6.26
2022-12-19T04:35:11.675Z,-6.17
2022-12-19T04:37:44.974Z,-6.12
2022-12-19T04:40:16.622Z,-6.05
2022-12-19T04:42:46.659Z,-5.97
2022-12-19T04:45:17.222Z,-5.95
2022-12-19T04:47:47.484Z,-5.92
2022-12-19T04:50:17.738Z,-5.94
2022-12-19T04:52:55.622Z,-5.95
2022-12-19T04:55:27.220Z,-5.92
2022-12-19T04:57:57.529Z,-5.90
2022-12-19T05:00:27.943Z,-5.93
2022-12-19T05:02:58.510Z,-5.87
2022-12-19T05:05:29.373Z,-5.85
2022-12-19T05:08:02.122Z,-5.81
2022-12-19T05:10:33.056Z,-5.81
2022-12-19T05:13:03.112Z,-5.77
2022-12-19T05:15:36.044Z,-5.71
2022-12-19T05:18:06.326Z,-5.69
2022-12-19T05:20:36.568Z,-5.63
2022-12-19T05:23:16.202Z,-5.59
2022-12-19T05:25:47.182Z,-5.62
2022-12-19T05:28:19.198Z,-5.60
2022-12-19T05:30:52.527Z,-5.60
2022-12-19T05:33:22.820Z,-5.64
2022-12-19T05:35:53.053Z,-5.57
2022-12-19T05:38:27.101Z,-5.56
2022-12-19T05:40:57.509Z,-5.51
2022-12-19T05:43:28.260Z,-5.53
2022-12-19T05:45:58.366Z,-5.51
2022-12-19T05:48:28.457Z,-5.45
2022-12-19T05:50:58.662Z,-5.46
2022-12-19T05:53:31.523Z,-5.36
2022-12-19T05:56:09.234Z,-5.35
2022-12-19T05:58:41.195Z,-5.36
2022-12-19T06:01:14.073Z,-5.35
2022-12-19T06:03:44.750Z,-5.35
2022-12-19T06:06:16.938Z,-5.34
2022-12-19T06:08:49.876Z,-5.29
2022-12-19T06:11:20.010Z,-5.29
2022-12-19T06:13:50.025Z,-5.24
2022-12-19T06:16:22.339Z,-5.19
2022-12-19T06:18:56.971Z,-5.16
2022-12-19T06:21:27.074Z,-5.10
2022-12-19T06:23:59.905Z,-5.05
2022-12-19T06:26:31.235Z,-5.02
2022-12-19T06:29:01.324Z,-4.94
2022-12-19T06:31:31.564Z,-4.83
2022-12-19T06:34:05.712Z,-4.75
2022-12-19T06:36:35.921Z,-4.71
2022-12-19T06:39:08.570Z,-4.72
2022-12-19T06:41:51.360Z,-4.68
2022-12-19T06:44:21.407Z,-4.66
2022-12-19T06:46:51.449Z,-4.68
2022-12-19T06:49:21.804Z,-4.66
2022-12-19T06:51:51.911Z,-4.63
2022-12-19T06:54:24.672Z,-4.65
2022-12-19T06:56:54.970Z,-4.57
2022-12-19T06:59:24.995Z,-4.59
2022-12-19T07:02:01.778Z,-4.55
2022-12-19T07:04:35.664Z,-4.52
2022-12-19T07:07:05.850Z,-4.51
2022-12-19T07:09:38.650Z,-4.53
2022-12-19T07:12:09.202Z,-4.63
2022-12-19T07:14:39.247Z,-4.71
2022-12-19T07:17:09.294Z,-4.63
2022-12-19T07:19:40.498Z,-4.72
2022-12-19T07:22:11.726Z,-4.70
2022-12-19T07:24:44.428Z,-4.80
2022-12-19T07:27:14.968Z,-4.78
2022-12-19T07:29:44.987Z,-4.78
2022-12-19T07:32:15.027Z,-4.71
2022-12-19T07:34:45.070Z,-4.65
2022-12-19T07:37:15.129Z,-4.59
2022-12-19T07:39:47.806Z,-4.62
2022-12-19T07:42:17.871Z,-4.54
2022-12-19T07:44:48.170Z,-4.50
2022-12-19T07:47:18.288Z,-4.56
2022-12-19T07:49:48.342Z,-4.49
2022-12-19T07:52:18.409Z,-4.33
2022-12-19T07:54:51.091Z,-4.33
2022-12-19T07:57:21.141Z,-4.28
2022-12-19T07:59:51.235Z,-4.32
2022-12-19T08:02:23.117Z,-4.40
2022-12-19T08:04:53.282Z,-4.30
2022-12-19T08:07:23.372Z,-4.36
2022-12-19T08:09:56.153Z,-4.32
2022-12-19T08:12:27.148Z,-4.23
2022-12-19T08:14:57.576Z,-4.30
2022-12-19T08:17:27.979Z,-4.19
2022-12-19T08:19:58.189Z,-4.10
2022-12-19T08:22:28.216Z,-4.10
2022-12-19T08:25:03.148Z,-4.08
2022-12-19T08:27:34.803Z,-3.99
2022-12-19T08:30:07.178Z,-4.03
2022-12-19T08:32:39.092Z,-3.93
2022-12-19T08:35:09.947Z,-3.88
2022-12-19T08:37:40.112Z,-3.79
2022-12-19T08:40:14.099Z,-3.81
2022-12-19T08:42:44.736Z,-3.71
2022-12-19T08:45:15.555Z,-3.69
2022-12-19T08:47:46.495Z,-3.72
2022-12-19T08:50:17.077Z,-3.60
2022-12-19T08:52:47.388Z,-3.54
2022-12-19T08:55:20.282Z,-3.59
2022-12-19T08:57:50.340Z,-3.46
2022-12-19T09:00:22.292Z,-3.46
2022-12-19T09:02:53.867Z,-3.49
2022-12-19T09:05:57.865Z,-3.41
2022-12-19T09:08:14.400Z,-3.40
2022-12-19T09:10:47.072Z,-3.33
2022-12-19T09:13:17.150Z,-3.19
2022-12-19T09:15:47.926Z,-3.25
2022-12-19T09:18:18.317Z,-3.14
2022-12-19T09:20:50.041Z,-3.18
2022-12-19T09:23:23.705Z,-3.06
2022-12-19T09:25:56.760Z,-3.04
2022-12-19T09:28:28.013Z,-3.00
2022-12-19T09:31:00.403Z,-2.97
2022-12-19T09:33:31.624Z,-2.82
2022-12-19T09:36:02.988Z,-2.72
2022-12-19T09:38:37.973Z,-2.71
2022-12-19T09:41:29.834Z,-2.63
2022-12-19T09:44:12.769Z,-2.54
2022-12-19T09:46:51.480Z,-2.43
2022-12-19T09:49:26.068Z,-2.39
2022-12-19T09:52:02.297Z,-2.41
2022-12-19T09:54:39.542Z,-2.41
2022-12-19T09:57:17.800Z,-2.39
2022-12-19T09:59:51.802Z,-2.30
2022-12-19T10:02:39.166Z,-2.18
2022-12-19T10:05:34.855Z,-2.05
2022-12-19T10:08:20.085Z,-2.04
2022-12-19T10:12:36.240Z,-1.96
2022-12-19T10:14:20.289Z,-1.85
2022-12-19T10:17:23.671Z,-1.78
2022-12-19T10:20:09.795Z,-1.77
2022-12-19T10:22:48.610Z,-1.71
2022-12-19T10:25:37.160Z,-1.65
2022-12-19T10:28:19.511Z,-1.59
2022-12-19T10:31:16.981Z,-1.52
2022-12-19T10:33:58.708Z,-1.57
2022-12-19T10:36:55.846Z,-1.51
2022-12-19T10:39:29.795Z,-1.48
2022-12-19T10:42:12.076Z,-1.36
2022-12-19T10:44:46.205Z,-1.25
2022-12-19T10:47:20.726Z,-1.13
2022-12-19T10:49:50.986Z,-1.22
2022-12-19T10:52:49.336Z,-1.08
2022-12-19T10:55:45.750Z,-1.12
2022-12-19T10:58:23.396Z,-1.00
2022-12-19T11:01:13.570Z,-0.98
2022-12-19T11:03:50.139Z,-0.89
2022-12-19T11:06:50.145Z,-0.81
2022-12-19T11:09:23.459Z,-0.74
2022-12-19T11:15:22.498Z,-0.62
2022-12-19T11:18:25.737Z,-0.73
2022-12-19T11:24:13.661Z,-0.60
2022-12-19T11:29:37.272Z,-0.53
2022-12-19T11:29:37.374Z,-0.48
2022-12-19T11:30:38.374Z,-0.43
2022-12-19T11:32:44.460Z,-0.41
2022-12-19T11:35:24.731Z,-0.28
2022-12-19T11:38:01.286Z,-0.33
2022-12-19T11:40:43.104Z,-0.24
2022-12-19T11:43:45.528Z,-0.18
2022-12-19T11:46:29.136Z,-0.24
2022-12-19T11:49:05.514Z,-0.38
2022-12-19T11:51:52.811Z,-0.42
2022-12-19T11:54:33.837Z,-0.21
2022-12-19T11:57:04.875Z,-0.06
2022-12-19T11:59:39.818Z,-0.03
2022-12-19T12:02:42.377Z,0.05
2022-12-19T12:05:26.644Z,0.10
2022-12-19T12:08:55.985Z,0.12
2022-12-19T12:16:29.562Z,0.05
2022-12-19T12:22:58.933Z,0.08
2022-12-19T12:31:00.949Z,-0.02
2022-12-19T12:31:30.556Z,0.07
2022-12-19T12:31:49.681Z,-0.04
2022-12-19T12:31:55.328Z,-0.07
2022-12-19T12:31:55.329Z,-0.04
2022-12-19T12:35:48.614Z,-0.13
2022-12-19T12:38:34.604Z,-0.22
2022-12-19T12:41:42.999Z,-0.14
2022-12-19T12:44:18.353Z,-0.05
2022-12-19T12:47:12.817Z,0.00
2022-12-19T12:49:46.355Z,-0.05
2022-12-19T12:52:20.974Z,-0.06
2022-12-19T12:54:53.399Z,-0.03
2022-12-19T12:57:37.971Z,-0.14
2022-12-19T13:00:24.044Z,-0.36
2022-12-19T13:03:01.045Z,-0.34
2022-12-19T13:05:44.237Z,-0.29
2022-12-19T13:08:30.980Z,-0.27
2022-12-19T13:11:04.338Z,-0.22
2022-12-19T13:13:58.245Z,-0.28
2022-12-19T13:16:55.209Z,-0.24
2022-12-19T13:19:29.291Z,-0.31
2022-12-19T13:22:25.263Z,-0.29
2022-12-19T13:24:57.181Z,-0.33
2022-12-19T13:27:38.923Z,-0.37
2022-12-19T13:30:21.452Z,-0.33
2022-12-19T13:33:13.787Z,-0.47
2022-12-19T13:38:54.368Z,-0.48
2022-12-19T13:39:59.967Z,-0.48
2022-12-19T13:41:45.688Z,-0.53
2022-12-19T13:44:16.288Z,-0.59
2022-12-19T13:46:48.745Z,-0.56
2022-12-19T13:49:27.518Z,-0.59
2022-12-19T13:52:01.747Z,-0.65
2022-12-19T13:54:34.983Z,-0.68
2022-12-19T13:57:09.677Z,-0.71
2022-12-19T13:59:48.547Z,-0.67
2022-12-19T14:02:43.391Z,-0.65
2022-12-19T14:05:48.537Z,-0.77
2022-12-19T14:08:26.412Z,-0.84
2022-12-19T14:11:32.585Z,-0.88
2022-12-19T14:14:08.478Z,-0.90
2022-12-19T14:16:45.111Z,-0.91
2022-12-19T14:19:23.747Z,-1.00
2022-12-19T14:22:10.106Z,-1.03
2022-12-19T14:24:55.884Z,-1.04
2022-12-19T14:28:17.939Z,-1.06
2022-12-19T14:30:44.205Z,-1.23
2022-12-19T14:33:47.826Z,-1.18
2022-12-19T14:36:17.405Z,-1.27
2022-12-19T14:39:25.134Z,-1.32
2022-12-19T14:42:01.868Z,-1.40
2022-12-19T14:54:07.520Z,-1.54
2022-12-19T14:54:12.114Z,-1.56
2022-12-19T14:54:15.969Z,-1.48
2022-12-19T14:54:40.653Z,-1.56
2022-12-19T14:56:46.663Z,-1.50
2022-12-19T14:59:24.954Z,-1.60
2022-12-19T15:02:03.186Z,-1.67
2022-12-19T15:04:52.466Z,-1.69
2022-12-19T15:07:26.911Z,-1.73
2022-12-19T15:11:02.895Z,-1.73
2022-12-19T15:14:49.251Z,-1.75
2022-12-19T15:16:05.528Z,-1.80
2022-12-19T15:18:42.912Z,-1.81
2022-12-19T15:21:15.314Z,-1.82
2022-12-19T15:23:47.876Z,-1.88
2022-12-19T15:26:21.225Z,-1.86
2022-12-19T15:28:56.419Z,-1.86
2022-12-19T15:31:34.907Z,-1.73
2022-12-19T15:34:41.578Z,-1.74
2022-12-19T15:37:12.848Z,-1.75
2022-12-19T15:39:43.787Z,-1.72
2022-12-19T15:42:20.440Z,-1.66
2022-12-19T15:44:56.712Z,-1.71
2022-12-19T15:47:33.853Z,-1.66
2022-12-19T15:50:06.868Z,-1.57
2022-12-19T15:52:36.990Z,-1.56
2022-12-19T15:55:07.913Z,-1.55
2022-12-19T15:57:40.433Z,-1.54
2022-12-19T16:00:21.198Z,-1.50
2022-12-19T16:05:43.414Z,-1.49
2022-12-19T16:08:15.104Z,-1.49
2022-12-19T16:10:46.295Z,-1.50
2022-12-19T16:13:22.295Z,-1.48
2022-12-19T16:15:56.669Z,-1.40
2022-12-19T16:18:27.321Z,-1.39
2022-12-19T16:20:57.627Z,-1.44
2022-12-19T16:23:28.261Z,-1.44
2022-12-19T16:26:00.087Z,-1.40
2022-12-19T16:28:34.934Z,-1.36
2022-12-19T16:31:17.665Z,-1.39
2022-12-19T16:33:47.796Z,-1.44
2022-12-19T16:36:17.947Z,-1.41
2022-12-19T16:38:48.084Z,-1.38
2022-12-19T16:41:26.546Z,-1.38
2022-12-19T16:43:59.418Z,-1.37
2022-12-19T16:46:33.529Z,-1.46
2022-12-19T16:49:03.824Z,-1.43
2022-12-19T16:51:34.478Z,-1.43
2022-12-19T16:54:05.693Z,-1.45
2022-12-19T16:56:37.977Z,-1.47
2022-12-19T16:59:15.749Z,-1.45
2022-12-19T17:01:52.256Z,-1.54
2022-12-19T17:04:25.051Z,-1.54
2022-12-19T17:06:56.288Z,-1.50
2022-12-19T17:09:27.879Z,-1.55
2022-12-19T17:12:01.026Z,-1.57
2022-12-19T17:14:35.038Z,-1.55
2022-12-19T17:17:08.011Z,-1.64
2022-12-19T17:19:41.920Z,-1.64
2022-12-19T17:22:13.851Z,-1.71
2022-12-19T17:24:44.217Z,-1.61
2022-12-19T17:27:14.377Z,-1.70
2022-12-19T17:29:44.664Z,-1.69
2022-12-19T17:32:23.980Z,-1.69
2022-12-19T17:34:55.510Z,-1.70
2022-12-19T17:37:25.649Z,-1.72
2022-12-19T17:39:55.764Z,-1.70
2022-12-19T17:42:35.298Z,-1.72
2022-12-19T17:45:09.266Z,-1.73
2022-12-19T17:47:42.421Z,-1.77
2022-12-19T17:50:22.998Z,-1.79
2022-12-19T17:52:53.960Z,-1.82
2022-12-19T17:55:26.709Z,-1.82
2022-12-19T17:57:57.767Z,-1.82
2022-12-19T18:00:31.305Z,-1.80
2022-12-19T18:03:08.360Z,-1.82
2022-12-19T18:05:39.829Z,-1.86
2022-12-19T18:08:24.496Z,-1.82
2022-12-19T18:10:56.652Z,-1.79
2022-12-19T18:13:27.310Z,-1.74
2022-12-19T18:16:06.948Z,-1.73
2022-12-19T18:18:42.493Z,-1.80
2022-12-19T18:21:17.875Z,-1.76
2022-12-19T18:23:48.519Z,-1.73
2022-12-19T18:26:18.763Z,-1.88
2022-12-19T18:28:51.529Z,-1.84
2022-12-19T18:31:28.438Z,-1.84
2022-12-19T18:34:07.724Z,-1.77
2022-12-19T18:36:42.742Z,-1.84
2022-12-19T18:39:22.414Z,-1.83
2022-12-19T18:41:53.923Z,-1.82
2022-12-19T18:44:26.081Z,-1.84
2022-12-19T18:46:56.627Z,-1.85
2022-12-19T18:49:35.053Z,-1.87
2022-12-19T18:52:05.657Z,-1.79
2022-12-19T18:54:36.112Z,-1.80
2022-12-19T18:57:06.217Z,-1.89
2022-12-19T18:59:36.263Z,-1.81
2022-12-19T19:02:07.007Z,-1.84
2022-12-19T19:04:40.357Z,-1.95
2022-12-19T19:07:13.749Z,-1.89
2022-12-19T19:09:44.516Z,-1.91
2022-12-19T19:12:48.699Z,-1.94
2022-12-19T19:15:19.963Z,-1.93
2022-12-19T19:17:52.867Z,-1.94
2022-12-19T19:20:25.714Z,-2.01
2022-12-19T19:22:57.036Z,-2.06
2022-12-19T19:25:28.674Z,-2.08
2022-12-19T19:27:59.292Z,-2.12
2022-12-19T19:30:30.624Z,-2.09
2022-12-19T19:33:07.486Z,-2.07
2022-12-19T19:35:40.681Z,-2.05
2022-12-19T19:38:12.130Z,-2.06
2022-12-19T19:40:42.547Z,-2.07
2022-12-19T19:43:13.579Z,-2.13
2022-12-19T19:45:44.741Z,-2.16
2022-12-19T19:48:15.536Z,-2.24
2022-12-19T19:50:49.996Z,-2.25
2022-12-19T19:53:20.296Z,-2.24
2022-12-19T19:55:59.789Z,-2.22
2022-12-19T19:58:30.534Z,-2.24
2022-12-19T20:01:01.710Z,-2.28
2022-12-19T20:03:32.022Z,-2.25
2022-12-19T20:06:06.105Z,-2.28
2022-12-19T20:08:42.022Z,-2.25
2022-12-19T20:11:13.802Z,-2.35
2022-12-19T20:13:44.029Z,-2.36
2022-12-19T20:16:16.461Z,-2.39
2022-12-19T20:18:51.252Z,-2.36
2022-12-19T20:21:24.789Z,-2.36
2022-12-19T20:23:55.074Z,-2.40
2022-12-19T20:26:27.626Z,-2.32
2022-12-19T20:29:00.015Z,-2.35
2022-12-19T20:31:31.400Z,-2.45
2022-12-19T20:34:01.945Z,-2.44
2022-12-19T20:36:36.136Z,-2.47
2022-12-19T20:39:09.672Z,-2.46
2022-12-19T20:41:39.793Z,-2.46
2022-12-19T20:44:10.028Z,-2.53
2022-12-19T20:46:40.217Z,-2.52
2022-12-19T20:49:11.070Z,-2.52
2022-12-19T20:51:44.495Z,-2.60
2022-12-19T20:54:15.917Z,-2.61
2022-12-19T20:56:46.024Z,-2.67
2022-12-19T20:59:16.075Z,-2.63
2022-12-19T21:01:46.320Z,-2.67
2022-12-19T21:04:16.803Z,-2.70
2022-12-19T21:06:49.769Z,-2.72
2022-12-19T21:09:20.565Z,-2.68
2022-12-19T21:11:50.703Z,-2.70
2022-12-19T21:14:20.751Z,-2.71
2022-12-19T21:16:51.231Z,-2.78
2022-12-19T21:19:21.360Z,-2.76
2022-12-19T21:21:54.169Z,-2.76
2022-12-19T21:24:24.463Z,-2.80
2022-12-19T21:26:58.158Z,-2.78
2022-12-19T21:29:28.978Z,-2.79
2022-12-19T21:31:59.187Z,-2.82
2022-12-19T21:34:35.564Z,-2.79
2022-12-19T21:37:13.980Z,-2.86
2022-12-19T21:39:51.642Z,-2.86
2022-12-19T21:42:33.725Z,-2.86
2022-12-19T21:45:11.855Z,-2.82
2022-12-19T21:47:50.083Z,-2.82
2022-12-19T21:50:26.338Z,-2.82
2022-12-19T21:53:01.885Z,-2.85
2022-12-19T21:55:32.380Z,-2.88
2022-12-19T21:58:02.972Z,-2.88
2022-12-19T22:00:34.135Z,-2.79
2022-12-19T22:03:19.601Z,-2.81
2022-12-19T22:05:49.959Z,-2.81
2022-12-19T22:08:22.666Z,-2.86
2022-12-19T22:10:52.704Z,-2.94
2022-12-19T22:13:22.922Z,-2.90
2022-12-19T22:16:03.972Z,-2.90
2022-12-19T22:18:35.834Z,-2.92
2022-12-19T22:21:07.392Z,-2.94
2022-12-19T22:23:40.680Z,-2.93
2022-12-19T22:26:14.284Z,-3.00
2022-12-19T22:28:46.465Z,-3.05
2022-12-19T22:31:23.700Z,-3.04
2022-12-19T22:33:56.218Z,-3.07
2022-12-19T22:36:29.143Z,-3.11
2022-12-19T22:39:03.817Z,-3.16
2022-12-19T22:41:36.600Z,-3.15
2022-12-19T22:44:08.582Z,-3.15
2022-12-19T22:46:40.894Z,-3.20
2022-12-19T22:49:11.903Z,-3.25
2022-12-19T22:51:42.398Z,-3.26
2022-12-19T22:54:17.938Z,-3.27
2022-12-19T22:56:47.969Z,-3.29
2022-12-19T22:59:18.420Z,-3.33
2022-12-19T23:01:48.948Z,-3.36
2022-12-19T23:04:19.413Z,-3.34
2022-12-19T23:06:49.766Z,-3.40
2022-12-19T23:09:22.634Z,-3.39
2022-12-19T23:11:52.881Z,-3.35
2022-12-19T23:14:24.684Z,-3.38
2022-12-19T23:16:54.891Z,-3.34
2022-12-19T23:19:25.182Z,-3.34
2022-12-19T23:21:55.462Z,-3.35
2022-12-19T23:24:29.953Z,-3.36
2022-12-19T23:27:00.041Z,-3.35
2022-12-19T23:29:30.210Z,-3.38
2022-12-19T23:32:00.607Z,-3.38
2022-12-19T23:34:30.885Z,-3.37
2022-12-19T23:37:11.219Z,-3.39
2022-12-19T23:39:45.027Z,-3.41
2022-12-19T23:42:15.170Z,-3.39
2022-12-19T23:44:45.632Z,-3.43
2022-12-19T23:47:15.700Z,-3.45
2022-12-19T23:49:45.781Z,-3.48
2022-12-19T23:52:15.898Z,-3.49
2022-12-19T23:54:49.485Z,-3.49
2022-12-19T23:57:19.645Z,-3.44
2022-12-19T23:59:49.686Z,-3.48
